sensor_id;sensor_type;location;lat;lon;timestamp;P1;durP1;ratioP1;P2;durP2;ratioP2
78549;SDS011;67846;52.130;5.570;2023-02-13T20:21:55;7.55;;;3.75;;
78549;SDS011;67846;52.130;5.570;2023-02-13T20:24:21;6.90;;;4.10;;
78549;SDS011;67846;52.130;5.570;2023-02-13T20:26:47;6.32;;;4.22;;
78549;SDS011;67846;52.130;5.570;2023-02-13T20:29:13;7.25;;;4.28;;
78549;SDS011;67846;52.130;5.570;2023-02-13T20:31:39;7.70;;;4.18;;
78549;SDS011;67846;52.130;5.570;2023-02-13T20:34:05;8.23;;;4.35;;
78549;SDS011;67846;52.130;5.570;2023-02-13T20:36:32;5.97;;;3.78;;
78549;SDS011;67846;52.130;5.570;2023-02-13T20:38:58;7.10;;;4.03;;
78549;SDS011;67846;52.130;5.570;2023-02-13T20:41:27;5.95;;;4.35;;
78549;SDS011;67846;52.130;5.570;2023-02-13T20:43:58;6.22;;;3.92;;
78549;SDS011;67846;52.130;5.570;2023-02-13T20:46:25;6.35;;;4.10;;
78549;SDS011;67846;52.130;5.570;2023-02-13T20:48:54;6.63;;;4.07;;
78549;SDS011;67846;52.130;5.570;2023-02-13T20:51:20;5.28;;;4.00;;
78549;SDS011;67846;52.130;5.570;2023-02-13T20:53:46;4.45;;;3.70;;
78549;SDS011;67846;52.130;5.570;2023-02-13T20:56:15;9.43;;;4.10;;
78549;SDS011;67846;52.130;5.570;2023-02-13T20:58:43;6.05;;;3.78;;
78549;SDS011;67846;52.130;5.570;2023-02-13T21:03:46;7.53;;;4.20;;
78549;SDS011;67846;52.130;5.570;2023-02-13T21:06:17;4.72;;;4.00;;
78549;SDS011;67846;52.130;5.570;2023-02-13T21:08:44;6.30;;;3.90;;
78549;SDS011;67846;52.130;5.570;2023-02-13T21:11:09;6.88;;;4.10;;
78549;SDS011;67846;52.130;5.570;2023-02-13T21:13:35;6.73;;;4.20;;
78549;SDS011;67846;52.130;5.570;2023-02-13T21:16:13;5.88;;;4.38;;
78549;SDS011;67846;52.130;5.570;2023-02-13T21:18:45;5.60;;;4.28;;
78549;SDS011;67846;52.130;5.570;2023-02-13T21:21:14;5.60;;;4.20;;
78549;SDS011;67846;52.130;5.570;2023-02-13T21:23:50;5.10;;;4.20;;
78549;SDS011;67846;52.130;5.570;2023-02-13T21:26:17;5.22;;;4.13;;
78549;SDS011;67846;52.130;5.570;2023-02-13T21:28:44;5.28;;;4.20;;
78549;SDS011;67846;52.130;5.570;2023-02-13T21:31:11;4.70;;;4.20;;
78549;SDS011;67846;52.130;5.570;2023-02-13T21:33:49;5.32;;;4.20;;
78549;SDS011;67846;52.130;5.570;2023-02-13T21:36:15;4.88;;;3.90;;
78549;SDS011;67846;52.130;5.570;2023-02-13T21:38:41;6.70;;;4.47;;
78549;SDS011;67846;52.130;5.570;2023-02-13T21:41:16;5.80;;;4.25;;
78549;SDS011;67846;52.130;5.570;2023-02-13T21:43:43;4.93;;;4.10;;
78549;SDS011;67846;52.130;5.570;2023-02-13T21:46:13;5.25;;;4.38;;
78549;SDS011;67846;52.130;5.570;2023-02-13T21:48:41;5.18;;;4.30;;
78549;SDS011;67846;52.130;5.570;2023-02-13T21:51:07;5.75;;;4.65;;
78549;SDS011;67846;52.130;5.570;2023-02-13T21:53:38;4.95;;;4.40;;
78549;SDS011;67846;52.130;5.570;2023-02-13T21:56:05;5.97;;;4.80;;
78549;SDS011;67846;52.130;5.570;2023-02-13T21:58:36;6.83;;;4.77;;
78549;SDS011;67846;52.130;5.570;2023-02-13T22:01:16;6.47;;;4.75;;
78549;SDS011;67846;52.130;5.570;2023-02-13T22:03:46;6.15;;;5.05;;
78549;SDS011;67846;52.130;5.570;2023-02-13T22:06:13;6.30;;;5.20;;
78549;SDS011;67846;52.130;5.570;2023-02-13T22:08:40;6.30;;;5.20;;
78549;SDS011;67846;52.130;5.570;2023-02-13T22:11:06;6.55;;;5.03;;
78549;SDS011;67846;52.130;5.570;2023-02-13T22:13:32;6.80;;;5.30;;
78549;SDS011;67846;52.130;5.570;2023-02-13T22:15:58;6.90;;;5.67;;
78549;SDS011;67846;52.130;5.570;2023-02-13T22:18:25;6.10;;;5.03;;
78549;SDS011;67846;52.130;5.570;2023-02-13T22:20:51;7.47;;;5.88;;
78549;SDS011;67846;52.130;5.570;2023-02-13T22:23:18;7.70;;;5.80;;
78549;SDS011;67846;52.130;5.570;2023-02-13T22:25:47;7.40;;;5.95;;
78549;SDS011;67846;52.130;5.570;2023-02-13T22:28:13;6.97;;;5.85;;
78549;SDS011;67846;52.130;5.570;2023-02-13T22:30:39;7.82;;;6.38;;
78549;SDS011;67846;52.130;5.570;2023-02-13T22:33:06;7.10;;;6.15;;
78549;SDS011;67846;52.130;5.570;2023-02-13T22:35:35;8.38;;;7.25;;
78549;SDS011;67846;52.130;5.570;2023-02-13T22:38:04;8.52;;;7.07;;
78549;SDS011;67846;52.130;5.570;2023-02-13T22:40:30;8.75;;;7.30;;
78549;SDS011;67846;52.130;5.570;2023-02-13T22:42:57;8.25;;;6.85;;
78549;SDS011;67846;52.130;5.570;2023-02-13T22:45:23;8.85;;;7.57;;
78549;SDS011;67846;52.130;5.570;2023-02-13T22:47:49;9.30;;;7.50;;
78549;SDS011;67846;52.130;5.570;2023-02-13T22:50:14;8.95;;;7.70;;
78549;SDS011;67846;52.130;5.570;2023-02-13T22:52:40;9.27;;;7.50;;
78549;SDS011;67846;52.130;5.570;2023-02-13T22:55:06;8.67;;;6.87;;
78549;SDS011;67846;52.130;5.570;2023-02-13T22:57:31;8.90;;;7.35;;
78549;SDS011;67846;52.130;5.570;2023-02-13T22:59:57;9.70;;;7.70;;
